Pagrindinis puslapis
METAR-TAF:

METAR-TAF

Oro uostai :

Gaya, Indija

platuma: 24-44-40N, ilguma: 84-57-04E, Aukštis: 116 m

Dabartinis oras

Ataskaita buvo paskelbta 49 minutes, ne 14:00 UTC
Ramus vėjas
Temperatūra 21°C
Drėgmė 69%
Slėgis 1014 hPa
Matomumas: 2500 m
migla

METAR: VEGY 191400Z 00000KT 2500 HZ NSC 21/15 Q1014

Laikas: 20:19 (14:49 UTC)

Prognozė

Ataskaita buvo paskelbta 49 minutes, ne 14:00 UTC
Prognozė galioja nuo 19 metu 15 UTC su 19 metu 24 UTC
Vėjas 2 kt iš Pietų
Matomumas: 2000 m
Išsisklaidę debesys ne aukštis 10000 ft
rūkana
Tapsmas
nuo 19 metu 22 UTC su 19 metu 24 UTC
Matomumas: 1100 m
Sekli rūkas, rūkana

TAF: VEGY 191400Z 1915/1924 18002KT 2000 BR SCT100 BECMG 1922/1924 1100 MIFG BR

Orai ataskaitas ir orų prognozės (METAR, TAF).

turimą stotys yra geltonos ir raudonos taškus žemėlapyje.

Perkelti pele per norėdami pamatyti stoties vardą.

Tada spustelėkite, norėdami matyti oro stebėjimo ir prognozės.

Norėdami pakeisti žemėlapį: spustelėkite ant žalios mygtukų su juodo kryžiaus žemyn,; žalią mygtuką su brūkšneliu, jei norite nutolinti; arba žalių rodyklių gretimoms žemėlapius.


METAR-TAF: